sensor_id;sensor_type;location;lat;lon;timestamp;temperature;humidity
59857;DHT22;45733;52.668;6.860;2024-01-15T00:01:47;4.80;99.90
59857;DHT22;45733;52.668;6.860;2024-01-15T00:04:15;5.00;99.90
59857;DHT22;45733;52.668;6.860;2024-01-15T00:06:40;4.90;99.90
59857;DHT22;45733;52.668;6.860;2024-01-15T00:09:06;4.80;99.90
59857;DHT22;45733;52.668;6.860;2024-01-15T00:11:32;4.90;99.90
59857;DHT22;45733;52.668;6.860;2024-01-15T00:13:58;4.90;99.90
59857;DHT22;45733;52.668;6.860;2024-01-15T00:16:24;4.60;99.90
59857;DHT22;45733;52.668;6.860;2024-01-15T00:18:50;4.70;99.90
59857;DHT22;45733;52.668;6.860;2024-01-15T00:21:15;4.70;99.90
59857;DHT22;45733;52.668;6.860;2024-01-15T00:23:44;4.70;99.90
59857;DHT22;45733;52.668;6.860;2024-01-15T00:26:11;4.50;99.90
59857;DHT22;45733;52.668;6.860;2024-01-15T00:28:37;4.80;99.90
59857;DHT22;45733;52.668;6.860;2024-01-15T00:31:06;4.60;99.90
59857;DHT22;45733;52.668;6.860;2024-01-15T00:33:32;4.70;99.90
59857;DHT22;45733;52.668;6.860;2024-01-15T00:35:57;4.80;99.90
59857;DHT22;45733;52.668;6.860;2024-01-15T00:38:23;4.70;99.90
59857;DHT22;45733;52.668;6.860;2024-01-15T00:40:49;4.70;99.90
59857;DHT22;45733;52.668;6.860;2024-01-15T00:43:15;4.60;99.90
59857;DHT22;45733;52.668;6.860;2024-01-15T00:45:43;4.60;99.90
59857;DHT22;45733;52.668;6.860;2024-01-15T00:48:09;4.80;99.90
59857;DHT22;45733;52.668;6.860;2024-01-15T00:50:35;4.70;99.90
59857;DHT22;45733;52.668;6.860;2024-01-15T00:53:00;4.70;99.90
59857;DHT22;45733;52.668;6.860;2024-01-15T00:55:28;4.80;99.90
59857;DHT22;45733;52.668;6.860;2024-01-15T00:57:54;4.80;99.90
59857;DHT22;45733;52.668;6.860;2024-01-15T01:00:20;4.70;99.90
59857;DHT22;45733;52.668;6.860;2024-01-15T01:02:45;4.90;99.90
59857;DHT22;45733;52.668;6.860;2024-01-15T01:05:11;4.70;99.90
59857;DHT22;45733;52.668;6.860;2024-01-15T01:07:37;4.90;99.90
59857;DHT22;45733;52.668;6.860;2024-01-15T01:10:03;4.90;99.90
59857;DHT22;45733;52.668;6.860;2024-01-15T01:12:29;4.70;99.90
59857;DHT22;45733;52.668;6.860;2024-01-15T01:14:55;4.70;99.90
59857;DHT22;45733;52.668;6.860;2024-01-15T01:17:22;4.80;99.90
59857;DHT22;45733;52.668;6.860;2024-01-15T01:19:47;4.90;99.90
59857;DHT22;45733;52.668;6.860;2024-01-15T01:22:13;4.90;99.90
59857;DHT22;45733;52.668;6.860;2024-01-15T01:24:39;4.90;99.90
59857;DHT22;45733;52.668;6.860;2024-01-15T01:27:04;5.00;99.90
59857;DHT22;45733;52.668;6.860;2024-01-15T01:29:30;4.90;99.90
59857;DHT22;45733;52.668;6.860;2024-01-15T01:31:59;5.00;99.90
59857;DHT22;45733;52.668;6.860;2024-01-15T01:34:24;4.90;99.90
59857;DHT22;45733;52.668;6.860;2024-01-15T01:36:50;5.10;99.90
59857;DHT22;45733;52.668;6.860;2024-01-15T01:39:16;5.00;99.90
59857;DHT22;45733;52.668;6.860;2024-01-15T01:41:41;5.00;99.90
59857;DHT22;45733;52.668;6.860;2024-01-15T01:44:07;5.10;99.90
59857;DHT22;45733;52.668;6.860;2024-01-15T01:46:33;5.00;99.90
59857;DHT22;45733;52.668;6.860;2024-01-15T01:49:00;5.10;99.90
59857;DHT22;45733;52.668;6.860;2024-01-15T01:51:31;5.00;99.90
59857;DHT22;45733;52.668;6.860;2024-01-15T01:53:57;5.20;99.90
59857;DHT22;45733;52.668;6.860;2024-01-15T01:56:22;5.20;99.90
59857;DHT22;45733;52.668;6.860;2024-01-15T01:58:48;5.20;99.90
59857;DHT22;45733;52.668;6.860;2024-01-15T02:01:15;5.20;99.90
59857;DHT22;45733;52.668;6.860;2024-01-15T02:03:41;5.10;99.90
59857;DHT22;45733;52.668;6.860;2024-01-15T02:06:07;5.10;99.90
59857;DHT22;45733;52.668;6.860;2024-01-15T02:08:33;5.10;99.90
59857;DHT22;45733;52.668;6.860;2024-01-15T02:11:00;4.90;99.90
59857;DHT22;45733;52.668;6.860;2024-01-15T02:13:26;5.00;99.90
59857;DHT22;45733;52.668;6.860;2024-01-15T02:15:52;4.70;99.90
59857;DHT22;45733;52.668;6.860;2024-01-15T02:18:17;4.90;99.90
59857;DHT22;45733;52.668;6.860;2024-01-15T02:20:43;4.90;99.90
59857;DHT22;45733;52.668;6.860;2024-01-15T02:25:44;4.50;99.90
59857;DHT22;45733;52.668;6.860;2024-01-15T02:28:13;4.40;99.90
59857;DHT22;45733;52.668;6.860;2024-01-15T02:30:41;4.50;99.90
59857;DHT22;45733;52.668;6.860;2024-01-15T02:33:07;4.40;99.90
59857;DHT22;45733;52.668;6.860;2024-01-15T02:35:33;4.70;99.90
59857;DHT22;45733;52.668;6.860;2024-01-15T02:38:02;4.40;99.90
59857;DHT22;45733;52.668;6.860;2024-01-15T02:40:28;4.90;99.90
59857;DHT22;45733;52.668;6.860;2024-01-15T02:42:54;4.60;99.90
59857;DHT22;45733;52.668;6.860;2024-01-15T02:45:21;4.60;99.90
59857;DHT22;45733;52.668;6.860;2024-01-15T02:47:46;5.00;99.90
59857;DHT22;45733;52.668;6.860;2024-01-15T02:50:13;4.70;99.90
59857;DHT22;45733;52.668;6.860;2024-01-15T02:52:38;5.20;99.90
59857;DHT22;45733;52.668;6.860;2024-01-15T02:55:05;5.20;99.90
59857;DHT22;45733;52.668;6.860;2024-01-15T02:57:30;4.80;99.90
59857;DHT22;45733;52.668;6.860;2024-01-15T02:59:56;5.00;99.90
59857;DHT22;45733;52.668;6.860;2024-01-15T03:02:22;5.10;99.90
59857;DHT22;45733;52.668;6.860;2024-01-15T03:04:47;5.10;99.90
59857;DHT22;45733;52.668;6.860;2024-01-15T03:07:17;5.10;99.90
59857;DHT22;45733;52.668;6.860;2024-01-15T03:09:43;4.80;99.90
59857;DHT22;45733;52.668;6.860;2024-01-15T03:12:09;4.80;99.90
59857;DHT22;45733;52.668;6.860;2024-01-15T03:14:35;5.10;99.90
59857;DHT22;45733;52.668;6.860;2024-01-15T03:17:04;4.90;99.90
59857;DHT22;45733;52.668;6.860;2024-01-15T03:19:30;5.00;99.90
59857;DHT22;45733;52.668;6.860;2024-01-15T03:21:56;5.10;99.90
59857;DHT22;45733;52.668;6.860;2024-01-15T03:24:22;4.90;99.90
59857;DHT22;45733;52.668;6.860;2024-01-15T03:26:47;5.30;99.90
59857;DHT22;45733;52.668;6.860;2024-01-15T03:29:13;4.90;99.90
59857;DHT22;45733;52.668;6.860;2024-01-15T03:31:39;5.20;99.90
59857;DHT22;45733;52.668;6.860;2024-01-15T03:34:04;4.80;99.90
59857;DHT22;45733;52.668;6.860;2024-01-15T03:36:30;5.20;99.90
59857;DHT22;45733;52.668;6.860;2024-01-15T03:38:56;4.90;99.90
59857;DHT22;45733;52.668;6.860;2024-01-15T03:41:21;5.10;99.90
59857;DHT22;45733;52.668;6.860;2024-01-15T03:43:47;5.00;99.90
59857;DHT22;45733;52.668;6.860;2024-01-15T03:46:13;4.60;99.90
59857;DHT22;45733;52.668;6.860;2024-01-15T03:48:38;4.50;99.90
59857;DHT22;45733;52.668;6.860;2024-01-15T03:51:04;4.60;99.90
59857;DHT22;45733;52.668;6.860;2024-01-15T03:53:30;4.40;99.90
59857;DHT22;45733;52.668;6.860;2024-01-15T03:55:56;4.70;99.90
59857;DHT22;45733;52.668;6.860;2024-01-15T03:58:22;4.80;99.90
59857;DHT22;45733;52.668;6.860;2024-01-15T04:00:47;4.90;99.90
59857;DHT22;45733;52.668;6.860;2024-01-15T04:03:13;4.60;99.90
59857;DHT22;45733;52.668;6.860;2024-01-15T04:05:39;4.90;99.90
59857;DHT22;45733;52.668;6.860;2024-01-15T04:08:04;4.90;99.90
59857;DHT22;45733;52.668;6.860;2024-01-15T04:10:30;4.70;99.90
59857;DHT22;45733;52.668;6.860;2024-01-15T04:12:57;4.80;99.90
59857;DHT22;45733;52.668;6.860;2024-01-15T04:15:25;4.70;99.90
59857;DHT22;45733;52.668;6.860;2024-01-15T04:17:51;5.10;99.90
59857;DHT22;45733;52.668;6.860;2024-01-15T04:20:17;5.10;99.90
59857;DHT22;45733;52.668;6.860;2024-01-15T04:22:43;5.20;99.90
59857;DHT22;45733;52.668;6.860;2024-01-15T04:25:09;5.20;99.90
59857;DHT22;45733;52.668;6.860;2024-01-15T04:27:35;5.00;99.90
59857;DHT22;45733;52.668;6.860;2024-01-15T04:30:01;5.20;99.90
59857;DHT22;45733;52.668;6.860;2024-01-15T04:32:26;5.10;99.90
59857;DHT22;45733;52.668;6.860;2024-01-15T04:34:52;5.20;99.90
59857;DHT22;45733;52.668;6.860;2024-01-15T04:37:17;5.20;99.90
59857;DHT22;45733;52.668;6.860;2024-01-15T04:39:43;5.20;99.90
59857;DHT22;45733;52.668;6.860;2024-01-15T04:42:09;5.00;99.90
59857;DHT22;45733;52.668;6.860;2024-01-15T04:44:34;4.70;99.90
59857;DHT22;45733;52.668;6.860;2024-01-15T04:47:00;5.00;99.90
59857;DHT22;45733;52.668;6.860;2024-01-15T04:49:26;5.00;99.90
59857;DHT22;45733;52.668;6.860;2024-01-15T04:51:52;4.80;99.90
59857;DHT22;45733;52.668;6.860;2024-01-15T04:54:18;5.30;99.90
59857;DHT22;45733;52.668;6.860;2024-01-15T04:56:44;5.00;99.90
59857;DHT22;45733;52.668;6.860;2024-01-15T04:59:10;4.90;99.90
59857;DHT22;45733;52.668;6.860;2024-01-15T05:01:36;5.20;99.90
59857;DHT22;45733;52.668;6.860;2024-01-15T05:04:02;5.10;99.90
59857;DHT22;45733;52.668;6.860;2024-01-15T05:06:28;4.90;99.90
59857;DHT22;45733;52.668;6.860;2024-01-15T05:08:53;5.00;99.90
59857;DHT22;45733;52.668;6.860;2024-01-15T05:11:19;4.90;99.90
59857;DHT22;45733;52.668;6.860;2024-01-15T05:13:45;4.90;99.90
59857;DHT22;45733;52.668;6.860;2024-01-15T05:16:10;5.20;99.90
59857;DHT22;45733;52.668;6.860;2024-01-15T05:18:36;5.20;99.90
59857;DHT22;45733;52.668;6.860;2024-01-15T05:21:04;5.20;99.90
59857;DHT22;45733;52.668;6.860;2024-01-15T05:23:31;4.90;99.90
59857;DHT22;45733;52.668;6.860;2024-01-15T05:26:00;4.80;99.90
59857;DHT22;45733;52.668;6.860;2024-01-15T05:28:26;5.20;99.90
59857;DHT22;45733;52.668;6.860;2024-01-15T05:30:51;5.10;99.90
59857;DHT22;45733;52.668;6.860;2024-01-15T05:33:18;5.00;99.90
59857;DHT22;45733;52.668;6.860;2024-01-15T05:35:43;5.10;99.90
59857;DHT22;45733;52.668;6.860;2024-01-15T05:38:09;5.00;99.90
59857;DHT22;45733;52.668;6.860;2024-01-15T05:40:35;5.00;99.90
59857;DHT22;45733;52.668;6.860;2024-01-15T05:43:00;4.90;99.90
59857;DHT22;45733;52.668;6.860;2024-01-15T05:45:26;5.00;99.90
59857;DHT22;45733;52.668;6.860;2024-01-15T05:47:52;4.60;99.90
59857;DHT22;45733;52.668;6.860;2024-01-15T05:50:18;4.80;99.90
59857;DHT22;45733;52.668;6.860;2024-01-15T05:52:44;4.90;99.90
59857;DHT22;45733;52.668;6.860;2024-01-15T05:55:09;4.40;99.90
59857;DHT22;45733;52.668;6.860;2024-01-15T05:57:36;4.50;99.90
59857;DHT22;45733;52.668;6.860;2024-01-15T06:00:02;4.60;99.90
59857;DHT22;45733;52.668;6.860;2024-01-15T06:02:28;4.30;99.90
59857;DHT22;45733;52.668;6.860;2024-01-15T06:04:54;4.50;99.90
59857;DHT22;45733;52.668;6.860;2024-01-15T06:07:19;4.80;99.90
59857;DHT22;45733;52.668;6.860;2024-01-15T06:09:45;4.60;99.90
59857;DHT22;45733;52.668;6.860;2024-01-15T06:12:10;4.80;99.90
59857;DHT22;45733;52.668;6.860;2024-01-15T06:14:36;4.90;99.90
59857;DHT22;45733;52.668;6.860;2024-01-15T06:17:02;4.70;99.90
59857;DHT22;45733;52.668;6.860;2024-01-15T06:19:28;5.00;99.90
59857;DHT22;45733;52.668;6.860;2024-01-15T06:21:53;5.00;99.90
59857;DHT22;45733;52.668;6.860;2024-01-15T06:24:19;4.90;99.90
59857;DHT22;45733;52.668;6.860;2024-01-15T06:26:46;4.60;99.90
59857;DHT22;45733;52.668;6.860;2024-01-15T06:29:12;4.90;99.90
59857;DHT22;45733;52.668;6.860;2024-01-15T06:31:38;5.10;99.90
59857;DHT22;45733;52.668;6.860;2024-01-15T06:34:03;5.00;99.90
59857;DHT22;45733;52.668;6.860;2024-01-15T06:36:29;4.40;99.90
59857;DHT22;45733;52.668;6.860;2024-01-15T06:38:55;4.90;99.90
59857;DHT22;45733;52.668;6.860;2024-01-15T06:41:21;4.60;99.90
59857;DHT22;45733;52.668;6.860;2024-01-15T06:43:48;4.40;99.90
59857;DHT22;45733;52.668;6.860;2024-01-15T06:46:22;4.70;99.90
59857;DHT22;45733;52.668;6.860;2024-01-15T06:48:48;4.80;99.90
59857;DHT22;45733;52.668;6.860;2024-01-15T06:51:15;4.40;99.90
59857;DHT22;45733;52.668;6.860;2024-01-15T06:53:40;4.70;99.90
59857;DHT22;45733;52.668;6.860;2024-01-15T06:56:06;4.20;99.90
59857;DHT22;45733;52.668;6.860;2024-01-15T06:58:32;4.90;99.90
59857;DHT22;45733;52.668;6.860;2024-01-15T07:00:58;4.70;99.90
59857;DHT22;45733;52.668;6.860;2024-01-15T07:03:24;4.60;99.90
59857;DHT22;45733;52.668;6.860;2024-01-15T07:05:49;4.70;99.90
59857;DHT22;45733;52.668;6.860;2024-01-15T07:08:15;4.60;99.90
59857;DHT22;45733;52.668;6.860;2024-01-15T07:10:41;4.50;99.90
59857;DHT22;45733;52.668;6.860;2024-01-15T07:13:07;4.40;99.90
59857;DHT22;45733;52.668;6.860;2024-01-15T07:15:32;4.50;99.90
59857;DHT22;45733;52.668;6.860;2024-01-15T07:17:58;4.30;99.90
59857;DHT22;45733;52.668;6.860;2024-01-15T07:20:24;4.80;99.90
59857;DHT22;45733;52.668;6.860;2024-01-15T07:22:49;4.00;99.90
59857;DHT22;45733;52.668;6.860;2024-01-15T07:25:15;4.00;99.90
59857;DHT22;45733;52.668;6.860;2024-01-15T07:27:41;3.80;99.90
59857;DHT22;45733;52.668;6.860;2024-01-15T07:30:11;4.70;99.90
59857;DHT22;45733;52.668;6.860;2024-01-15T07:32:37;3.90;99.90
59857;DHT22;45733;52.668;6.860;2024-01-15T07:35:03;4.50;99.90
59857;DHT22;45733;52.668;6.860;2024-01-15T07:37:29;4.60;99.90
59857;DHT22;45733;52.668;6.860;2024-01-15T07:39:54;4.80;99.90
59857;DHT22;45733;52.668;6.860;2024-01-15T07:42:20;4.90;99.90
59857;DHT22;45733;52.668;6.860;2024-01-15T07:44:46;4.10;99.90
59857;DHT22;45733;52.668;6.860;2024-01-15T07:47:12;4.50;99.90
59857;DHT22;45733;52.668;6.860;2024-01-15T07:49:38;4.70;99.90
59857;DHT22;45733;52.668;6.860;2024-01-15T07:52:04;4.90;99.90
59857;DHT22;45733;52.668;6.860;2024-01-15T07:54:31;4.00;99.90
59857;DHT22;45733;52.668;6.860;2024-01-15T07:56:59;4.90;99.90
59857;DHT22;45733;52.668;6.860;2024-01-15T07:59:25;4.70;99.90
59857;DHT22;45733;52.668;6.860;2024-01-15T08:01:51;4.80;99.90
59857;DHT22;45733;52.668;6.860;2024-01-15T08:04:17;4.80;99.90
59857;DHT22;45733;52.668;6.860;2024-01-15T08:06:43;4.10;99.90
59857;DHT22;45733;52.668;6.860;2024-01-15T08:09:09;4.10;99.90
59857;DHT22;45733;52.668;6.860;2024-01-15T08:11:35;4.90;99.90
59857;DHT22;45733;52.668;6.860;2024-01-15T08:14:01;4.90;99.90
59857;DHT22;45733;52.668;6.860;2024-01-15T08:16:26;3.90;99.90
59857;DHT22;45733;52.668;6.860;2024-01-15T08:18:53;3.90;99.90
59857;DHT22;45733;52.668;6.860;2024-01-15T08:21:19;4.30;99.90
59857;DHT22;45733;52.668;6.860;2024-01-15T08:23:45;4.00;99.90
59857;DHT22;45733;52.668;6.860;2024-01-15T08:26:11;4.20;99.90
59857;DHT22;45733;52.668;6.860;2024-01-15T08:28:36;4.10;99.90
59857;DHT22;45733;52.668;6.860;2024-01-15T08:31:02;4.10;99.90
59857;DHT22;45733;52.668;6.860;2024-01-15T08:33:29;4.90;99.90
59857;DHT22;45733;52.668;6.860;2024-01-15T08:35:55;4.40;99.90
59857;DHT22;45733;52.668;6.860;2024-01-15T08:38:20;4.80;99.90
59857;DHT22;45733;52.668;6.860;2024-01-15T08:40:46;4.20;99.90
59857;DHT22;45733;52.668;6.860;2024-01-15T08:43:12;4.40;99.90
59857;DHT22;45733;52.668;6.860;2024-01-15T08:45:41;4.60;99.90
59857;DHT22;45733;52.668;6.860;2024-01-15T08:48:06;4.70;99.90
59857;DHT22;45733;52.668;6.860;2024-01-15T08:50:32;5.10;99.90
59857;DHT22;45733;52.668;6.860;2024-01-15T08:52:59;4.90;99.90
59857;DHT22;45733;52.668;6.860;2024-01-15T08:55:24;5.00;99.90
59857;DHT22;45733;52.668;6.860;2024-01-15T08:57:50;4.90;99.90
59857;DHT22;45733;52.668;6.860;2024-01-15T09:00:17;5.20;99.90
59857;DHT22;45733;52.668;6.860;2024-01-15T09:02:43;5.30;99.90
59857;DHT22;45733;52.668;6.860;2024-01-15T09:05:09;5.20;99.90
59857;DHT22;45733;52.668;6.860;2024-01-15T09:07:35;5.10;99.90
59857;DHT22;45733;52.668;6.860;2024-01-15T09:10:00;5.00;99.90
59857;DHT22;45733;52.668;6.860;2024-01-15T09:12:27;5.20;99.90
59857;DHT22;45733;52.668;6.860;2024-01-15T09:14:53;4.90;99.90
59857;DHT22;45733;52.668;6.860;2024-01-15T09:17:20;5.10;99.90
59857;DHT22;45733;52.668;6.860;2024-01-15T09:19:45;5.20;99.90
59857;DHT22;45733;52.668;6.860;2024-01-15T09:22:12;5.20;99.90
59857;DHT22;45733;52.668;6.860;2024-01-15T09:24:40;5.50;99.90
59857;DHT22;45733;52.668;6.860;2024-01-15T09:27:07;5.50;99.90
59857;DHT22;45733;52.668;6.860;2024-01-15T09:29:33;5.20;99.90
59857;DHT22;45733;52.668;6.860;2024-01-15T09:31:58;5.30;99.90
59857;DHT22;45733;52.668;6.860;2024-01-15T09:34:24;5.20;99.90
59857;DHT22;45733;52.668;6.860;2024-01-15T09:36:50;5.10;99.90
59857;DHT22;45733;52.668;6.860;2024-01-15T09:39:15;5.20;99.90
59857;DHT22;45733;52.668;6.860;2024-01-15T09:41:42;5.50;99.90
59857;DHT22;45733;52.668;6.860;2024-01-15T09:44:08;5.40;99.90
59857;DHT22;45733;52.668;6.860;2024-01-15T09:46:36;5.80;99.90
59857;DHT22;45733;52.668;6.860;2024-01-15T09:49:02;5.90;99.90
59857;DHT22;45733;52.668;6.860;2024-01-15T09:51:31;5.80;99.90
59857;DHT22;45733;52.668;6.860;2024-01-15T09:53:58;5.50;99.90
59857;DHT22;45733;52.668;6.860;2024-01-15T09:56:24;5.40;99.90
59857;DHT22;45733;52.668;6.860;2024-01-15T09:58:50;5.30;99.90
59857;DHT22;45733;52.668;6.860;2024-01-15T10:01:20;5.10;99.90
59857;DHT22;45733;52.668;6.860;2024-01-15T10:03:46;5.10;99.90
59857;DHT22;45733;52.668;6.860;2024-01-15T10:06:16;5.20;99.90
59857;DHT22;45733;52.668;6.860;2024-01-15T10:08:49;5.30;99.90
59857;DHT22;45733;52.668;6.860;2024-01-15T10:11:15;5.40;99.90
59857;DHT22;45733;52.668;6.860;2024-01-15T10:13:43;5.40;99.90
59857;DHT22;45733;52.668;6.860;2024-01-15T10:16:10;5.60;99.90
59857;DHT22;45733;52.668;6.860;2024-01-15T10:18:36;5.50;99.90
59857;DHT22;45733;52.668;6.860;2024-01-15T10:21:03;5.40;99.90
59857;DHT22;45733;52.668;6.860;2024-01-15T10:23:31;5.50;99.90
59857;DHT22;45733;52.668;6.860;2024-01-15T10:25:58;5.60;99.90
59857;DHT22;45733;52.668;6.860;2024-01-15T10:28:26;5.60;99.90
59857;DHT22;45733;52.668;6.860;2024-01-15T10:30:56;5.70;99.90
59857;DHT22;45733;52.668;6.860;2024-01-15T10:33:23;5.50;99.90
59857;DHT22;45733;52.668;6.860;2024-01-15T10:35:56;5.70;99.90
59857;DHT22;45733;52.668;6.860;2024-01-15T10:38:22;5.80;99.90
59857;DHT22;45733;52.668;6.860;2024-01-15T10:40:52;6.00;99.90
59857;DHT22;45733;52.668;6.860;2024-01-15T10:43:18;5.80;99.90
59857;DHT22;45733;52.668;6.860;2024-01-15T10:45:45;5.90;99.90
59857;DHT22;45733;52.668;6.860;2024-01-15T10:48:11;5.90;99.90
59857;DHT22;45733;52.668;6.860;2024-01-15T10:50:37;6.00;99.90
59857;DHT22;45733;52.668;6.860;2024-01-15T10:53:04;5.80;99.90
59857;DHT22;45733;52.668;6.860;2024-01-15T10:55:30;5.60;99.90
59857;DHT22;45733;52.668;6.860;2024-01-15T10:57:58;5.70;99.90
59857;DHT22;45733;52.668;6.860;2024-01-15T11:00:23;5.60;99.90
59857;DHT22;45733;52.668;6.860;2024-01-15T11:02:51;5.50;99.90
59857;DHT22;45733;52.668;6.860;2024-01-15T11:05:41;5.50;99.90
59857;DHT22;45733;52.668;6.860;2024-01-15T11:08:07;5.60;99.90
59857;DHT22;45733;52.668;6.860;2024-01-15T11:16:00;5.70;99.90
59857;DHT22;45733;52.668;6.860;2024-01-15T11:18:31;5.70;99.90
59857;DHT22;45733;52.668;6.860;2024-01-15T11:23:57;5.60;99.90
59857;DHT22;45733;52.668;6.860;2024-01-15T11:26:43;5.80;99.90
59857;DHT22;45733;52.668;6.860;2024-01-15T11:32:01;6.00;99.90
59857;DHT22;45733;52.668;6.860;2024-01-15T11:34:56;6.00;99.90
59857;DHT22;45733;52.668;6.860;2024-01-15T11:37:24;5.80;99.90
59857;DHT22;45733;52.668;6.860;2024-01-15T11:39:54;5.90;99.90
59857;DHT22;45733;52.668;6.860;2024-01-15T11:42:21;5.80;99.90
59857;DHT22;45733;52.668;6.860;2024-01-15T11:44:48;5.80;99.90
59857;DHT22;45733;52.668;6.860;2024-01-15T11:47:14;5.60;99.90
59857;DHT22;45733;52.668;6.860;2024-01-15T11:52:22;5.60;99.90
59857;DHT22;45733;52.668;6.860;2024-01-15T11:57:45;5.70;99.90
59857;DHT22;45733;52.668;6.860;2024-01-15T12:00:11;5.90;99.90
59857;DHT22;45733;52.668;6.860;2024-01-15T12:02:42;6.10;99.90
59857;DHT22;45733;52.668;6.860;2024-01-15T12:05:12;6.20;99.90
59857;DHT22;45733;52.668;6.860;2024-01-15T12:07:39;6.20;99.90
59857;DHT22;45733;52.668;6.860;2024-01-15T12:10:16;6.00;99.90
59857;DHT22;45733;52.668;6.860;2024-01-15T12:15:28;5.90;99.90
59857;DHT22;45733;52.668;6.860;2024-01-15T12:17:59;6.00;99.90
59857;DHT22;45733;52.668;6.860;2024-01-15T12:20:25;6.00;99.90
59857;DHT22;45733;52.668;6.860;2024-01-15T12:22:51;6.00;99.90
59857;DHT22;45733;52.668;6.860;2024-01-15T12:25:17;6.00;99.90
59857;DHT22;45733;52.668;6.860;2024-01-15T12:27:43;6.10;99.90
59857;DHT22;45733;52.668;6.860;2024-01-15T12:30:13;5.90;99.90
59857;DHT22;45733;52.668;6.860;2024-01-15T12:32:40;5.80;99.90
59857;DHT22;45733;52.668;6.860;2024-01-15T12:35:06;5.80;99.90
59857;DHT22;45733;52.668;6.860;2024-01-15T12:37:32;5.80;99.90
59857;DHT22;45733;52.668;6.860;2024-01-15T12:39:59;5.50;99.90
59857;DHT22;45733;52.668;6.860;2024-01-15T12:42:25;5.40;99.90
59857;DHT22;45733;52.668;6.860;2024-01-15T12:44:50;5.30;99.90
59857;DHT22;45733;52.668;6.860;2024-01-15T12:47:16;5.00;99.90
59857;DHT22;45733;52.668;6.860;2024-01-15T12:49:47;4.90;99.90
59857;DHT22;45733;52.668;6.860;2024-01-15T12:52:15;5.00;99.90
59857;DHT22;45733;52.668;6.860;2024-01-15T12:54:44;5.00;99.90
59857;DHT22;45733;52.668;6.860;2024-01-15T12:57:09;5.00;99.90
59857;DHT22;45733;52.668;6.860;2024-01-15T12:59:35;4.90;99.90
59857;DHT22;45733;52.668;6.860;2024-01-15T13:02:01;5.00;99.90
59857;DHT22;45733;52.668;6.860;2024-01-15T13:04:27;5.20;99.90
59857;DHT22;45733;52.668;6.860;2024-01-15T13:06:53;5.20;99.90
59857;DHT22;45733;52.668;6.860;2024-01-15T13:09:19;5.10;99.90
59857;DHT22;45733;52.668;6.860;2024-01-15T13:11:45;5.30;99.90
59857;DHT22;45733;52.668;6.860;2024-01-15T13:14:11;5.10;99.90
59857;DHT22;45733;52.668;6.860;2024-01-15T13:16:37;5.20;99.90
59857;DHT22;45733;52.668;6.860;2024-01-15T13:19:02;5.10;99.90
59857;DHT22;45733;52.668;6.860;2024-01-15T13:21:30;5.20;99.90
59857;DHT22;45733;52.668;6.860;2024-01-15T13:23:55;5.30;99.90
59857;DHT22;45733;52.668;6.860;2024-01-15T13:26:21;5.30;99.90
59857;DHT22;45733;52.668;6.860;2024-01-15T13:28:48;5.30;99.90
59857;DHT22;45733;52.668;6.860;2024-01-15T13:31:14;5.30;99.90
59857;DHT22;45733;52.668;6.860;2024-01-15T13:33:40;5.20;99.90
59857;DHT22;45733;52.668;6.860;2024-01-15T13:36:06;5.30;99.90
59857;DHT22;45733;52.668;6.860;2024-01-15T13:38:36;5.20;99.90
59857;DHT22;45733;52.668;6.860;2024-01-15T13:41:07;5.30;99.90
59857;DHT22;45733;52.668;6.860;2024-01-15T13:43:33;5.20;99.90
59857;DHT22;45733;52.668;6.860;2024-01-15T13:45:59;5.20;99.90
59857;DHT22;45733;52.668;6.860;2024-01-15T13:48:25;5.20;99.90
59857;DHT22;45733;52.668;6.860;2024-01-15T13:50:52;5.40;99.90
59857;DHT22;45733;52.668;6.860;2024-01-15T13:53:18;5.40;99.90
59857;DHT22;45733;52.668;6.860;2024-01-15T13:55:44;5.40;99.90
59857;DHT22;45733;52.668;6.860;2024-01-15T13:58:10;5.40;99.90
59857;DHT22;45733;52.668;6.860;2024-01-15T14:00:36;5.50;99.90
59857;DHT22;45733;52.668;6.860;2024-01-15T14:03:02;5.40;99.90
59857;DHT22;45733;52.668;6.860;2024-01-15T14:05:28;5.50;99.90
59857;DHT22;45733;52.668;6.860;2024-01-15T14:07:54;5.40;99.90
59857;DHT22;45733;52.668;6.860;2024-01-15T14:10:20;5.40;99.90
59857;DHT22;45733;52.668;6.860;2024-01-15T14:12:46;5.30;99.90
59857;DHT22;45733;52.668;6.860;2024-01-15T14:15:12;5.40;99.90
59857;DHT22;45733;52.668;6.860;2024-01-15T14:17:38;5.50;99.90
59857;DHT22;45733;52.668;6.860;2024-01-15T14:20:04;5.30;99.90
59857;DHT22;45733;52.668;6.860;2024-01-15T14:22:30;5.50;99.90
59857;DHT22;45733;52.668;6.860;2024-01-15T14:24:56;5.50;99.90
59857;DHT22;45733;52.668;6.860;2024-01-15T14:27:22;5.40;99.90
59857;DHT22;45733;52.668;6.860;2024-01-15T14:29:48;5.70;99.90
59857;DHT22;45733;52.668;6.860;2024-01-15T14:32:13;5.80;99.90
59857;DHT22;45733;52.668;6.860;2024-01-15T14:34:39;5.60;99.90
59857;DHT22;45733;52.668;6.860;2024-01-15T14:37:05;5.90;99.90
59857;DHT22;45733;52.668;6.860;2024-01-15T14:39:31;5.90;99.90
59857;DHT22;45733;52.668;6.860;2024-01-15T14:42:00;5.90;99.90
59857;DHT22;45733;52.668;6.860;2024-01-15T14:44:26;5.80;99.90
59857;DHT22;45733;52.668;6.860;2024-01-15T14:46:51;5.80;99.90
59857;DHT22;45733;52.668;6.860;2024-01-15T14:49:18;5.80;99.90
59857;DHT22;45733;52.668;6.860;2024-01-15T14:51:44;5.70;99.90
59857;DHT22;45733;52.668;6.860;2024-01-15T14:54:10;5.70;99.90
59857;DHT22;45733;52.668;6.860;2024-01-15T14:56:36;5.90;99.90
59857;DHT22;45733;52.668;6.860;2024-01-15T14:59:01;5.70;99.90
59857;DHT22;45733;52.668;6.860;2024-01-15T15:01:28;5.70;99.90
59857;DHT22;45733;52.668;6.860;2024-01-15T15:03:53;5.70;99.90
59857;DHT22;45733;52.668;6.860;2024-01-15T15:06:19;5.60;99.90
59857;DHT22;45733;52.668;6.860;2024-01-15T15:08:46;5.50;99.90
59857;DHT22;45733;52.668;6.860;2024-01-15T15:11:12;5.50;99.90
59857;DHT22;45733;52.668;6.860;2024-01-15T15:13:37;5.40;99.90
59857;DHT22;45733;52.668;6.860;2024-01-15T15:16:03;5.20;99.90
59857;DHT22;45733;52.668;6.860;2024-01-15T15:18:29;5.10;99.90
59857;DHT22;45733;52.668;6.860;2024-01-15T15:20:56;5.00;99.90
59857;DHT22;45733;52.668;6.860;2024-01-15T15:23:22;5.00;99.90
59857;DHT22;45733;52.668;6.860;2024-01-15T15:25:47;5.00;99.90
59857;DHT22;45733;52.668;6.860;2024-01-15T15:28:13;4.80;99.90
59857;DHT22;45733;52.668;6.860;2024-01-15T15:30:41;4.90;99.90
59857;DHT22;45733;52.668;6.860;2024-01-15T15:33:07;4.80;99.90
59857;DHT22;45733;52.668;6.860;2024-01-15T15:35:33;5.00;99.90
59857;DHT22;45733;52.668;6.860;2024-01-15T15:37:58;4.80;99.90
59857;DHT22;45733;52.668;6.860;2024-01-15T15:40:24;4.80;99.90
59857;DHT22;45733;52.668;6.860;2024-01-15T15:42:52;5.00;99.90
59857;DHT22;45733;52.668;6.860;2024-01-15T15:45:18;4.90;99.90
59857;DHT22;45733;52.668;6.860;2024-01-15T15:47:44;5.00;99.90
59857;DHT22;45733;52.668;6.860;2024-01-15T15:50:09;5.10;99.90
59857;DHT22;45733;52.668;6.860;2024-01-15T15:52:35;5.20;99.90
59857;DHT22;45733;52.668;6.860;2024-01-15T15:55:01;5.20;99.90
59857;DHT22;45733;52.668;6.860;2024-01-15T15:57:28;5.10;99.90
59857;DHT22;45733;52.668;6.860;2024-01-15T15:59:54;5.00;99.90
59857;DHT22;45733;52.668;6.860;2024-01-15T16:02:21;5.00;99.90